Time;durP1;ratioP1;P1;durP2;ratioP2;P2;SDS_P1;SDS_P2;PMS_P1;PMS_P2;Temp;Humidity;BMP_temperature;BMP_pressure;BME280_temperature;BME280_humidity;BME280_pressure;Samples;Min_cycle;Max_cycle;Signal;HPM_P1;HPM_P2
2024/01/05 00:00:46;;;;;;;0.20;0.20;;;;;;;12.80;70.55;100163.00;5110178;28;20023;-70
2024/01/05 00:03:12;;;;;;;0.20;0.20;;;;;;;12.79;70.94;100163.25;5091302;28;20138;-73
2024/01/05 00:05:39;;;;;;;0.30;0.30;;;;;;;12.90;70.47;100152.28;5110408;28;20035;-73
2024/01/05 00:08:05;;;;;;;0.30;0.30;;;;;;;12.49;71.88;100138.69;5093003;28;20116;-72
2024/01/05 00:10:30;;;;;;;0.30;0.30;;;;;;;12.47;73.37;100144.34;5109731;28;20050;-74
2024/01/05 00:12:56;;;;;;;0.40;0.40;;;;;;;13.43;69.01;100145.16;5110344;28;20032;-74
2024/01/05 00:15:21;;;;;;;0.30;0.30;;;;;;;12.96;70.80;100136.97;5109106;28;20039;-73
2024/01/05 00:17:46;;;;;;;0.30;0.30;;;;;;;13.20;70.29;100128.28;5109426;28;20074;-74
2024/01/05 00:20:12;;;;;;;0.40;0.40;;;;;;;13.45;68.52;100127.63;5109483;28;20066;-73
2024/01/05 00:22:37;;;;;;;0.30;0.30;;;;;;;13.11;70.27;100124.44;5105951;28;20036;-72
2024/01/05 00:25:05;;;;;;;0.40;0.40;;;;;;;12.76;72.15;100126.00;5078411;28;20046;-74
2024/01/05 00:27:31;;;;;;;0.40;0.40;;;;;;;12.63;73.37;100123.75;5108257;28;20052;-73
2024/01/05 00:29:56;;;;;;;0.40;0.40;;;;;;;13.06;71.04;100121.72;5095816;28;20036;-73
2024/01/05 00:32:21;;;;;;;0.30;0.30;;;;;;;12.96;71.47;100104.59;5097317;28;20579;-73
2024/01/05 00:34:47;;;;;;;0.40;0.40;;;;;;;13.40;69.33;100103.31;5097409;28;20113;-73
2024/01/05 00:37:12;;;;;;;0.40;0.40;;;;;;;13.26;69.65;100099.44;5090025;28;20399;-73
2024/01/05 00:39:38;;;;;;;0.30;0.30;;;;;;;13.01;70.47;100085.78;5105555;28;20032;-73
2024/01/05 00:42:05;;;;;;;0.30;0.30;;;;;;;13.08;70.59;100073.72;5094661;28;20028;-73
2024/01/05 00:44:30;;;;;;;0.30;0.30;;;;;;;13.53;69.95;100069.63;5098619;28;20034;-73
2024/01/05 00:46:56;;;;;;;0.40;0.40;;;;;;;13.00;70.87;100063.38;5095845;28;20484;-72
2024/01/05 00:49:21;;;;;;;0.38;0.38;;;;;;;12.74;71.66;100063.44;5105843;28;20140;-73
2024/01/05 00:51:46;;;;;;;0.30;0.30;;;;;;;12.94;71.46;100061.72;5092603;28;20112;-74
2024/01/05 00:54:12;;;;;;;0.30;0.30;;;;;;;13.27;69.85;100055.19;5094969;28;20446;-72
2024/01/05 00:56:37;;;;;;;0.30;0.30;;;;;;;13.53;68.21;100048.84;5088873;28;20114;-73
2024/01/05 00:59:02;;;;;;;0.40;0.40;;;;;;;13.52;68.88;100044.50;5088565;28;20039;-72
2024/01/05 01:01:28;;;;;;;0.43;0.43;;;;;;;13.47;68.53;100046.38;5089022;28;20031;-72
2024/01/05 01:03:54;;;;;;;0.50;0.50;;;;;;;13.38;69.10;100046.09;5091184;28;20411;-74
2024/01/05 01:06:19;;;;;;;0.30;0.30;;;;;;;13.25;69.29;100040.38;5109027;28;20078;-74
2024/01/05 01:08:44;;;;;;;0.30;0.30;;;;;;;12.78;71.89;100034.88;5109203;28;20050;-71
2024/01/05 01:11:17;;;;;;;0.40;0.40;;;;;;;12.20;73.83;100028.53;5090063;28;20083;-75
2024/01/05 01:13:44;;;;;;;0.30;0.30;;;;;;;13.28;70.17;100027.16;5090056;28;20046;-73
2024/01/05 01:16:11;;;;;;;0.30;0.30;;;;;;;13.18;70.23;100024.41;5109793;28;20382;-74
2024/01/05 01:18:37;;;;;;;0.32;0.32;;;;;;;13.37;69.72;100016.66;5104270;28;20028;-73
2024/01/05 01:21:02;;;;;;;0.32;0.32;;;;;;;13.17;69.97;100012.78;5088827;28;20075;-73
2024/01/05 01:23:28;;;;;;;0.40;0.40;;;;;;;13.73;68.63;100018.41;5105055;28;20040;-71
2024/01/05 01:25:53;;;;;;;0.40;0.40;;;;;;;12.66;72.30;100012.72;5108683;28;20035;-73
2024/01/05 01:28:18;;;;;;;0.25;0.25;;;;;;;12.96;70.84;100013.72;5109133;28;20035;-74
2024/01/05 01:30:44;;;;;;;0.38;0.38;;;;;;;13.00;71.21;100012.13;5109220;28;20039;-73
2024/01/05 01:33:09;;;;;;;0.30;0.30;;;;;;;12.84;71.26;100006.91;5109007;28;20321;-75
2024/01/05 01:35:34;;;;;;;0.30;0.30;;;;;;;13.08;71.76;100008.97;5106628;28;20502;-74
2024/01/05 01:38:00;;;;;;;0.40;0.40;;;;;;;12.78;71.54;99999.84;5088555;28;20036;-73
2024/01/05 01:40:26;;;;;;;0.40;0.40;;;;;;;12.80;70.88;99995.00;5088634;28;20142;-74
2024/01/05 01:42:51;;;;;;;0.40;0.40;;;;;;;13.32;69.50;99993.19;5089079;28;20040;-72
2024/01/05 01:45:17;;;;;;;0.30;0.30;;;;;;;13.37;70.54;100005.84;5088281;28;20043;-74
2024/01/05 01:47:44;;;;;;;0.43;0.43;;;;;;;12.87;71.12;99992.91;5088712;28;20048;-72
2024/01/05 01:50:09;;;;;;;0.30;0.30;;;;;;;13.02;71.00;99980.31;5088468;28;20050;-73
2024/01/05 01:52:40;;;;;;;0.30;0.30;;;;;;;12.69;72.33;99990.63;5088989;28;20040;-75
2024/01/05 01:55:07;;;;;;;0.20;0.20;;;;;;;12.54;73.08;99983.25;5109211;28;20022;-72
2024/01/05 01:57:33;;;;;;;0.20;0.20;;;;;;;12.77;72.21;99980.19;5108757;28;20036;-71
2024/01/05 01:59:59;;;;;;;0.38;0.38;;;;;;;12.84;71.97;99975.34;5108394;28;20048;-76
2024/01/05 02:02:25;;;;;;;0.20;0.20;;;;;;;13.51;69.44;99974.59;5089673;28;20502;-72
2024/01/05 02:04:51;;;;;;;0.30;0.30;;;;;;;13.86;68.06;99970.09;5109037;28;20418;-73
2024/01/05 02:07:17;;;;;;;0.40;0.40;;;;;;;13.47;68.82;99965.41;5090196;28;20118;-72
2024/01/05 02:09:42;;;;;;;0.32;0.32;;;;;;;13.34;70.48;99963.22;5108108;28;20082;-72
2024/01/05 02:12:08;;;;;;;0.20;0.20;;;;;;;13.50;68.71;99948.72;5111796;28;20039;-73
2024/01/05 02:14:33;;;;;;;0.30;0.30;;;;;;;13.09;71.54;99962.03;5112600;28;20039;-77
2024/01/05 02:16:59;;;;;;;0.30;0.30;;;;;;;13.94;67.21;99957.97;5112612;28;20394;-78
2024/01/05 02:19:25;;;;;;;0.40;0.40;;;;;;;13.19;69.89;99954.00;5112506;28;20377;-77
2024/01/05 02:21:53;;;;;;;0.40;0.40;;;;;;;13.44;69.00;99947.06;5112586;28;20020;-79
2024/01/05 02:24:18;;;;;;;0.30;0.30;;;;;;;14.51;65.15;99952.31;5112087;28;20043;-76
2024/01/05 02:26:44;;;;;;;0.20;0.20;;;;;;;14.57;65.03;99943.13;5112007;28;20056;-77
2024/01/05 02:29:09;;;;;;;0.40;0.40;;;;;;;14.20;64.86;99934.47;5092946;28;20036;-76
2024/01/05 02:31:35;;;;;;;0.30;0.30;;;;;;;14.32;65.51;99927.75;5105284;28;20032;-77
2024/01/05 02:34:00;;;;;;;0.50;0.50;;;;;;;13.42;69.47;99933.03;5112517;28;20044;-78
2024/01/05 02:36:26;;;;;;;0.20;0.20;;;;;;;14.34;65.64;99922.88;5084150;28;20503;-77
2024/01/05 02:38:51;;;;;;;0.50;0.50;;;;;;;14.46;65.47;99914.47;5091389;28;20415;-77
2024/01/05 02:41:17;;;;;;;0.40;0.40;;;;;;;14.34;65.42;99911.25;5091348;28;20039;-77
2024/01/05 02:43:42;;;;;;;0.30;0.30;;;;;;;14.10;66.40;99913.66;5091288;28;20369;-78
2024/01/05 02:46:09;;;;;;;0.45;0.45;;;;;;;14.65;64.74;99910.94;5091580;28;20043;-76
2024/01/05 02:48:34;;;;;;;0.20;0.20;;;;;;;14.64;64.46;99898.47;5091431;28;20036;-79
2024/01/05 02:51:00;;;;;;;0.40;0.40;;;;;;;14.56;65.36;99900.94;5091311;28;20047;-76
2024/01/05 02:53:25;;;;;;;0.35;0.35;;;;;;;14.55;65.53;99892.03;5098946;28;20491;-76
2024/01/05 02:55:50;;;;;;;0.40;0.40;;;;;;;13.80;68.11;99882.06;5127627;27;20126;-77
2024/01/05 02:58:16;;;;;;;0.30;0.30;;;;;;;14.33;67.45;99885.31;5112221;28;20107;-77
2024/01/05 03:00:41;;;;;;;0.30;0.30;;;;;;;14.40;66.49;99875.03;5095230;28;20062;-76
2024/01/05 03:03:06;;;;;;;0.20;0.20;;;;;;;13.77;69.28;99877.22;5091289;28;20040;-77
2024/01/05 03:05:32;;;;;;;0.40;0.40;;;;;;;14.61;65.86;99874.72;5104667;28;20044;-78
2024/01/05 03:07:58;;;;;;;0.15;0.15;;;;;;;14.19;66.27;99868.00;5110994;28;20123;-77
2024/01/05 03:10:23;;;;;;;0.40;0.40;;;;;;;14.29;67.97;99863.41;5111076;28;20402;-77
2024/01/05 03:12:51;;;;;;;0.40;0.40;;;;;;;15.05;65.23;99861.28;5111803;28;20111;-78
2024/01/05 03:15:17;;;;;;;0.30;0.30;;;;;;;14.37;67.18;99853.97;5111116;28;20088;-77
2024/01/05 03:17:43;;;;;;;0.30;0.30;;;;;;;14.17;67.58;99854.75;5093303;28;20040;-76
2024/01/05 03:20:09;;;;;;;0.32;0.32;;;;;;;14.96;64.57;99847.53;5111041;28;20043;-77
2024/01/05 03:22:35;;;;;;;0.40;0.40;;;;;;;14.73;65.38;99844.66;5110787;28;20100;-76
2024/01/05 03:25:00;;;;;;;0.10;0.10;;;;;;;15.37;63.97;99836.47;5111651;28;20020;-76
2024/01/05 03:27:25;;;;;;;0.30;0.30;;;;;;;15.55;63.51;99838.53;5110910;28;20503;-76
2024/01/05 03:29:51;;;;;;;0.30;0.30;;;;;;;15.09;64.31;99827.19;5110816;28;20039;-77
2024/01/05 03:32:16;;;;;;;0.30;0.30;;;;;;;14.75;66.15;99832.47;5091727;28;20036;-78
2024/01/05 03:34:41;;;;;;;0.22;0.22;;;;;;;14.67;67.24;99822.22;5110712;28;20380;-77
2024/01/05 03:37:07;;;;;;;0.30;0.30;;;;;;;15.19;64.85;99819.00;5111120;28;20103;-77
2024/01/05 03:39:32;;;;;;;0.38;0.38;;;;;;;14.92;66.06;99816.69;5110779;28;20132;-77
2024/01/05 03:41:57;;;;;;;0.17;0.17;;;;;;;14.81;67.69;99800.81;5110703;28;20031;-78
2024/01/05 03:44:23;;;;;;;0.20;0.20;;;;;;;13.46;70.91;99807.28;5091711;28;20126;-77
2024/01/05 03:46:49;;;;;;;0.30;0.30;;;;;;;13.31;74.09;99799.97;5091585;28;20118;-76
2024/01/05 03:49:16;;;;;;;0.20;0.20;;;;;;;13.97;71.39;99796.16;5092649;28;20020;-79
2024/01/05 03:51:41;;;;;;;0.20;0.20;;;;;;;14.59;68.84;99789.53;5110134;28;20060;-77
2024/01/05 03:54:07;;;;;;;0.40;0.40;;;;;;;14.91;66.90;99795.34;5096711;28;20052;-79
2024/01/05 03:56:42;;;;;;;0.30;0.30;;;;;;;15.69;64.14;99785.34;5090337;28;20073;-78
2024/01/05 03:59:08;;;;;;;0.30;0.30;;;;;;;14.97;65.45;99778.00;5090153;28;20040;-77
2024/01/05 04:01:42;;;;;;;0.30;0.30;;;;;;;14.81;67.37;99787.28;5101457;28;20479;-78
2024/01/05 04:04:07;;;;;;;0.30;0.30;;;;;;;15.49;63.92;99794.44;5092231;28;20019;-76
2024/01/05 04:06:32;;;;;;;0.38;0.38;;;;;;;15.26;64.49;99778.88;5110032;28;20110;-78
2024/01/05 04:08:58;;;;;;;0.43;0.43;;;;;;;15.03;65.51;99771.47;5110268;28;20082;-79
2024/01/05 04:11:25;;;;;;;0.20;0.20;;;;;;;14.89;65.80;99765.06;5069156;28;20064;-77
2024/01/05 04:13:51;;;;;;;0.20;0.20;;;;;;;14.88;66.49;99758.00;5069611;28;20039;-78
2024/01/05 04:16:16;;;;;;;0.40;0.40;;;;;;;14.98;64.85;99763.38;5069851;28;20028;-77
2024/01/05 04:18:42;;;;;;;0.20;0.20;;;;;;;14.94;65.19;99756.91;5069726;28;20526;-77
2024/01/05 04:21:09;;;;;;;0.30;0.30;;;;;;;14.89;64.96;99755.06;5069300;28;20040;-77
2024/01/05 04:23:34;;;;;;;0.20;0.20;;;;;;;14.78;65.80;99748.06;5069545;28;20041;-77
2024/01/05 04:26:00;;;;;;;0.20;0.20;;;;;;;14.89;65.64;99746.13;5069440;28;20038;-77
2024/01/05 04:28:25;;;;;;;0.30;0.30;;;;;;;14.62;66.29;99753.84;5069343;28;20024;-77
2024/01/05 04:30:51;;;;;;;0.20;0.20;;;;;;;14.77;66.22;99745.66;5069267;28;20124;-78
2024/01/05 04:33:17;;;;;;;0.20;0.20;;;;;;;15.54;64.26;99747.56;5068761;28;20385;-77
2024/01/05 04:35:44;;;;;;;0.30;0.30;;;;;;;15.05;65.12;99744.13;5069160;28;20020;-76
2024/01/05 04:38:09;;;;;;;0.40;0.40;;;;;;;14.97;65.43;99737.41;5069385;28;20028;-77
2024/01/05 04:40:34;;;;;;;0.40;0.40;;;;;;;15.22;64.09;99747.25;5067553;28;20100;-79
2024/01/05 04:43:00;;;;;;;0.30;0.30;;;;;;;14.74;65.38;99733.47;5069910;28;20028;-80
2024/01/05 04:45:25;;;;;;;0.32;0.32;;;;;;;15.01;65.29;99732.25;5067381;28;20054;-77
2024/01/05 04:47:50;;;;;;;0.43;0.43;;;;;;;14.48;67.39;99728.50;5068966;28;20556;-78
2024/01/05 04:50:16;;;;;;;0.30;0.30;;;;;;;15.46;63.90;99721.09;5069040;28;20055;-77
2024/01/05 04:52:41;;;;;;;0.30;0.30;;;;;;;14.81;65.62;99716.97;5068929;28;20114;-76
2024/01/05 04:55:08;;;;;;;0.30;0.30;;;;;;;15.29;64.29;99712.56;5069673;28;20039;-78
2024/01/05 04:57:34;;;;;;;0.40;0.40;;;;;;;15.39;64.03;99710.56;5068732;28;20033;-77
2024/01/05 04:59:59;;;;;;;0.25;0.25;;;;;;;15.15;64.10;99704.28;5068888;28;20052;-79
2024/01/05 05:02:24;;;;;;;0.40;0.40;;;;;;;15.44;63.15;99705.16;5067035;28;20127;-77
2024/01/05 05:04:50;;;;;;;0.35;0.35;;;;;;;15.27;64.75;99701.22;5068224;28;20127;-77
2024/01/05 05:07:15;;;;;;;0.20;0.20;;;;;;;15.49;64.21;99705.09;5068918;28;20492;-77
2024/01/05 05:09:40;;;;;;;0.30;0.30;;;;;;;15.88;61.95;99690.63;5076762;28;20074;-78
2024/01/05 05:12:06;;;;;;;0.40;0.40;;;;;;;15.44;64.02;99701.63;5108919;28;20070;-77
2024/01/05 05:14:31;;;;;;;0.20;0.20;;;;;;;15.71;63.14;99686.47;5109445;28;20036;-77
2024/01/05 05:16:57;;;;;;;0.30;0.30;;;;;;;15.43;63.77;99689.97;5109326;28;20114;-78
2024/01/05 05:19:22;;;;;;;0.40;0.40;;;;;;;15.64;62.93;99691.44;5091165;28;20043;-77
2024/01/05 05:21:47;;;;;;;0.35;0.35;;;;;;;15.33;63.59;99694.66;5109882;28;20032;-77
2024/01/05 05:24:13;;;;;;;0.30;0.30;;;;;;;15.83;62.71;99673.34;5090345;28;20112;-76
2024/01/05 05:26:38;;;;;;;0.30;0.30;;;;;;;15.37;64.40;99701.91;5109284;28;20040;-78
2024/01/05 05:29:03;;;;;;;0.40;0.40;;;;;;;15.33;63.82;99678.41;5109247;28;20070;-77
2024/01/05 05:31:29;;;;;;;0.40;0.40;;;;;;;15.67;63.90;99676.47;5108703;28;20031;-79
2024/01/05 05:33:54;;;;;;;0.43;0.43;;;;;;;15.96;62.24;99676.44;5091191;28;20023;-78
2024/01/05 05:36:20;;;;;;;0.25;0.25;;;;;;;15.91;61.83;99673.78;5109406;28;20089;-77
2024/01/05 05:38:45;;;;;;;0.40;0.40;;;;;;;15.94;62.50;99676.72;5108974;28;20061;-78
2024/01/05 05:41:10;;;;;;;0.20;0.20;;;;;;;15.71;63.10;99683.75;5108999;28;20118;-71
2024/01/05 05:43:36;;;;;;;0.25;0.25;;;;;;;15.79;63.41;99671.47;5109702;28;20088;-74
2024/01/05 05:46:01;;;;;;;0.30;0.30;;;;;;;15.92;62.51;99657.22;5113254;28;20045;-74
2024/01/05 05:48:27;;;;;;;0.30;0.30;;;;;;;15.90;61.89;99650.50;5112739;28;20039;-73
2024/01/05 05:50:52;;;;;;;0.28;0.28;;;;;;;15.63;63.77;99651.88;5112714;28;20127;-73
2024/01/05 05:53:17;;;;;;;0.40;0.40;;;;;;;15.90;62.55;99655.94;5112273;28;20441;-72
2024/01/05 05:55:43;;;;;;;0.38;0.38;;;;;;;15.67;63.12;99657.53;5112350;28;20058;-74
2024/01/05 05:58:08;;;;;;;0.43;0.43;;;;;;;15.99;62.10;99655.00;5094351;28;20117;-72
2024/01/05 06:00:35;;;;;;;0.20;0.20;;;;;;;16.14;61.73;99652.09;5112491;28;20058;-73
2024/01/05 06:03:05;;;;;;;0.30;0.30;;;;;;;16.08;62.23;99653.25;5112129;28;20040;-71
2024/01/05 06:05:31;;;;;;;0.30;0.30;;;;;;;16.02;62.67;99653.63;5112130;28;20115;-72
2024/01/05 06:07:56;;;;;;;0.50;0.50;;;;;;;15.40;64.64;99666.16;5112459;28;20495;-73
2024/01/05 06:10:22;;;;;;;0.20;0.20;;;;;;;15.69;63.72;99664.28;5111183;28;20499;-75
2024/01/05 06:12:47;;;;;;;0.50;0.50;;;;;;;15.33;65.43;99664.88;5090589;28;20519;-76
2024/01/05 06:15:13;;;;;;;0.28;0.28;;;;;;;15.63;64.64;99661.91;5092498;28;20085;-77
2024/01/05 06:17:38;;;;;;;0.47;0.47;;;;;;;16.15;61.71;99661.03;5112362;28;20038;-76
2024/01/05 06:20:04;;;;;;;0.40;0.40;;;;;;;16.29;61.23;99657.34;5112248;28;20055;-78
2024/01/05 06:22:30;;;;;;;0.20;0.20;;;;;;;16.29;61.66;99659.22;5112850;28;20450;-76
2024/01/05 06:24:56;;;;;;;0.30;0.30;;;;;;;15.88;62.65;99650.78;5112593;28;20115;-76
2024/01/05 06:27:21;;;;;;;0.25;0.25;;;;;;;16.12;61.83;99648.88;5112245;28;20036;-76
2024/01/05 06:29:47;;;;;;;0.40;0.40;;;;;;;16.35;61.69;99649.94;5112130;28;20436;-77
2024/01/05 06:32:12;;;;;;;0.40;0.40;;;;;;;16.11;61.33;99651.88;5111666;27;20059;-77
2024/01/05 06:34:37;;;;;;;0.40;0.40;;;;;;;16.30;61.64;99647.28;5112437;28;20106;-76
2024/01/05 06:37:03;;;;;;;0.28;0.28;;;;;;;16.20;62.04;99653.66;5093630;28;20035;-78
2024/01/05 06:39:28;;;;;;;0.20;0.20;;;;;;;15.63;63.68;99648.34;5111853;28;20523;-76
2024/01/05 06:41:53;;;;;;;0.47;0.47;;;;;;;15.87;62.59;99651.06;5111632;28;20118;-77
2024/01/05 06:44:19;;;;;;;0.30;0.30;;;;;;;16.33;61.77;99647.50;5111307;28;20039;-77
2024/01/05 06:46:44;;;;;;;0.20;0.20;;;;;;;15.93;62.58;99650.72;5093150;28;20036;-76
2024/01/05 06:49:09;;;;;;;0.30;0.30;;;;;;;16.54;60.59;99648.88;5111867;28;20156;-77
2024/01/05 06:51:39;;;;;;;0.20;0.20;;;;;;;16.09;62.17;99643.22;5111606;28;20036;-77
2024/01/05 06:54:04;;;;;;;0.40;0.40;;;;;;;15.86;62.67;99635.94;5111776;28;20027;-77
2024/01/05 06:56:34;;;;;;;0.20;0.20;;;;;;;15.93;62.56;99642.59;5110943;28;20579;-78
2024/01/05 06:59:01;;;;;;;0.30;0.30;;;;;;;15.67;62.98;99641.28;5111719;28;20521;-77
2024/01/05 07:01:27;;;;;;;0.40;0.40;;;;;;;16.06;62.84;99636.47;5112026;28;20031;-78
2024/01/05 07:03:52;;;;;;;0.30;0.30;;;;;;;15.76;63.70;99634.16;5111592;28;20039;-77
2024/01/05 07:06:18;;;;;;;0.40;0.40;;;;;;;15.99;62.63;99637.94;5111363;28;20193;-77
2024/01/05 07:08:43;;;;;;;0.40;0.40;;;;;;;16.45;60.58;99628.91;5093261;28;20073;-77
2024/01/05 07:11:10;;;;;;;0.40;0.40;;;;;;;15.59;63.31;99628.34;5111450;28;20035;-78
2024/01/05 07:13:35;;;;;;;0.25;0.25;;;;;;;15.81;63.47;99631.38;5111433;28;20015;-78
2024/01/05 07:16:01;;;;;;;0.32;0.32;;;;;;;16.21;62.10;99630.88;5111836;28;20099;-77
2024/01/05 07:18:26;;;;;;;0.30;0.30;;;;;;;15.14;64.86;99631.47;5111369;28;20169;-78
2024/01/05 07:20:51;;;;;;;0.32;0.32;;;;;;;15.71;63.84;99620.66;5111167;28;20044;-77
2024/01/05 07:23:17;;;;;;;0.22;0.22;;;;;;;15.54;63.87;99621.13;5110671;28;20066;-77
2024/01/05 07:25:42;;;;;;;0.30;0.30;;;;;;;16.19;61.23;99614.09;5110318;28;20529;-78
2024/01/05 07:28:08;;;;;;;0.40;0.40;;;;;;;15.65;63.55;99624.50;5111519;28;20035;-77
2024/01/05 07:30:33;;;;;;;0.30;0.30;;;;;;;15.55;63.51;99620.00;5110866;28;20486;-78
2024/01/05 07:32:59;;;;;;;0.30;0.30;;;;;;;16.16;61.51;99613.84;5111368;28;20550;-77
2024/01/05 07:35:24;;;;;;;0.20;0.20;;;;;;;16.19;61.38;99608.69;5109147;28;20030;-78
2024/01/05 07:37:49;;;;;;;0.30;0.30;;;;;;;16.07;61.93;99612.91;5073571;28;20051;-79
2024/01/05 07:40:15;;;;;;;0.20;0.20;;;;;;;15.80;62.79;99608.09;5091497;28;20028;-78
2024/01/05 07:42:40;;;;;;;0.32;0.32;;;;;;;15.70;61.87;99606.28;5090301;28;20530;-79
2024/01/05 07:45:06;;;;;;;0.20;0.20;;;;;;;15.34;64.09;99599.63;5091722;28;20028;-78
2024/01/05 07:47:31;;;;;;;0.30;0.30;;;;;;;15.74;62.99;99601.91;5110737;28;20040;-79
2024/01/05 07:49:57;;;;;;;0.30;0.30;;;;;;;14.69;66.96;99606.44;5111360;28;20031;-79
2024/01/05 07:52:22;;;;;;;0.40;0.40;;;;;;;15.57;63.81;99615.09;5094221;28;20043;-79
2024/01/05 07:54:48;;;;;;;0.20;0.20;;;;;;;15.47;63.71;99609.81;5091064;28;20352;-77
2024/01/05 07:57:14;;;;;;;0.20;0.20;;;;;;;15.98;62.08;99610.00;5102111;27;20023;-77
2024/01/05 07:59:39;;;;;;;0.30;0.30;;;;;;;15.12;64.77;99618.25;5088123;28;20055;-77
2024/01/05 08:02:04;;;;;;;0.30;0.30;;;;;;;15.29;63.94;99615.13;5088919;28;20032;-78
2024/01/05 08:04:30;;;;;;;0.30;0.30;;;;;;;15.32;64.21;99614.53;5087303;28;20099;-77
2024/01/05 08:06:55;;;;;;;0.20;0.20;;;;;;;15.44;63.92;99615.81;5093964;28;20039;-78
2024/01/05 08:09:20;;;;;;;0.30;0.30;;;;;;;16.03;61.53;99606.44;5096143;28;20115;-78
2024/01/05 08:11:46;;;;;;;0.30;0.30;;;;;;;15.89;62.14;99602.81;5094894;28;20059;-78
2024/01/05 08:14:11;;;;;;;0.40;0.40;;;;;;;15.10;65.54;99611.50;5081431;28;20428;-77
2024/01/05 08:16:37;;;;;;;0.30;0.30;;;;;;;15.38;63.92;99606.09;5094383;28;20164;-77
2024/01/05 08:19:02;;;;;;;0.30;0.30;;;;;;;15.74;63.04;99610.03;5095793;28;20110;-80
2024/01/05 08:21:28;;;;;;;0.30;0.30;;;;;;;15.40;64.08;99605.78;5103690;27;20040;-79
2024/01/05 08:23:54;;;;;;;0.40;0.40;;;;;;;15.88;61.88;99612.84;5103609;28;20508;-79
2024/01/05 08:26:19;;;;;;;0.20;0.20;;;;;;;15.32;63.20;99606.41;5099570;28;20523;-79
2024/01/05 08:28:45;;;;;;;0.30;0.30;;;;;;;15.49;63.85;99601.38;5102833;28;20297;-81
2024/01/05 08:31:11;;;;;;;0.20;0.20;;;;;;;15.34;63.95;99605.03;5102818;28;20023;-80
2024/01/05 08:33:38;;;;;;;0.40;0.40;;;;;;;15.38;63.82;99610.69;5102809;28;20035;-79
2024/01/05 08:36:04;;;;;;;0.50;0.50;;;;;;;15.13;64.58;99608.22;5104387;28;20032;-79
2024/01/05 08:38:30;;;;;;;0.30;0.30;;;;;;;15.22;63.80;99607.31;5102884;28;20050;-80
2024/01/05 08:40:55;;;;;;;0.50;0.50;;;;;;;15.86;61.90;99608.84;5100421;28;20111;-79
2024/01/05 08:43:20;;;;;;;0.20;0.20;;;;;;;15.81;61.55;99605.09;5103093;28;20477;-79
2024/01/05 08:45:46;;;;;;;0.17;0.17;;;;;;;15.87;61.70;99608.53;5103306;28;20039;-80
2024/01/05 08:48:14;;;;;;;0.40;0.40;;;;;;;15.88;61.87;99606.66;5104393;28;20129;-79
2024/01/05 08:50:40;;;;;;;0.30;0.30;;;;;;;15.37;63.14;99607.16;5105852;28;20056;-78
2024/01/05 08:53:05;;;;;;;0.20;0.20;;;;;;;15.69;61.39;99603.88;5088888;28;20024;-79
2024/01/05 08:55:31;;;;;;;0.40;0.40;;;;;;;15.58;62.14;99611.31;5098047;28;20035;-79
2024/01/05 08:57:56;;;;;;;0.20;0.20;;;;;;;15.25;62.60;99622.19;5100577;28;20427;-79
2024/01/05 09:00:22;;;;;;;0.30;0.30;;;;;;;14.81;64.12;99620.41;5096404;28;20031;-77
2024/01/05 09:02:47;;;;;;;0.40;0.40;;;;;;;15.31;62.60;99612.94;5098101;28;20174;-78
2024/01/05 09:05:13;;;;;;;0.20;0.20;;;;;;;15.08;62.27;99622.59;5099331;28;20036;-77
2024/01/05 09:07:38;;;;;;;0.40;0.40;;;;;;;15.95;59.54;99615.22;5108359;28;20044;-76
2024/01/05 09:10:04;;;;;;;0.30;0.30;;;;;;;15.22;61.73;99618.16;5104749;28;20113;-78
2024/01/05 09:12:29;;;;;;;0.22;0.22;;;;;;;15.16;61.82;99624.69;5091088;28;20042;-77
2024/01/05 09:14:55;;;;;;;0.32;0.32;;;;;;;15.92;59.79;99622.00;5102127;28;20067;-77
2024/01/05 09:17:20;;;;;;;0.40;0.40;;;;;;;15.54;60.44;99628.44;5115338;28;20051;-76
2024/01/05 09:23:08;;;;;;;0.10;0.10;;;;;;;15.99;59.10;99622.47;5114716;28;20368;-78
2024/01/05 09:25:34;;;;;;;0.20;0.20;;;;;;;15.47;59.77;99626.03;5098841;28;20553;-76
2024/01/05 09:28:01;;;;;;;0.20;0.20;;;;;;;15.11;60.18;99632.88;5118343;28;20130;-77
2024/01/05 09:30:26;;;;;;;0.32;0.32;;;;;;;14.30;61.84;99637.22;5118076;28;20028;-76
2024/01/05 09:32:52;;;;;;;0.40;0.40;;;;;;;14.60;60.45;99627.03;5109325;28;20062;-77
2024/01/05 09:35:18;;;;;;;0.20;0.20;;;;;;;14.73;60.30;99628.31;5116147;28;20483;-77
2024/01/05 09:37:43;;;;;;;0.20;0.20;;;;;;;15.32;60.13;99633.47;5118940;28;20042;-76
2024/01/05 09:40:10;;;;;;;0.35;0.35;;;;;;;15.07;60.29;99641.84;5108400;28;20089;-77
2024/01/05 09:42:39;;;;;;;0.28;0.28;;;;;;;15.28;59.59;99635.97;5113549;27;20036;-78
2024/01/05 09:45:09;;;;;;;0.40;0.40;;;;;;;15.21;60.14;99649.03;5106011;28;20038;-78
2024/01/05 09:47:36;;;;;;;0.20;0.20;;;;;;;14.55;63.29;99662.22;5101316;28;20522;-77
2024/01/05 09:50:04;;;;;;;0.28;0.28;;;;;;;14.85;62.38;99653.09;5108835;27;20050;-78
2024/01/05 09:52:30;;;;;;;0.20;0.20;;;;;;;15.23;61.37;99654.16;5113121;27;20016;-79
2024/01/05 09:54:56;;;;;;;0.20;0.20;;;;;;;15.01;62.54;99651.91;5112951;28;20132;-76
2024/01/05 09:57:22;;;;;;;0.20;0.20;;;;;;;15.01;61.92;99654.59;5089552;28;20089;-75
2024/01/05 09:59:48;;;;;;;0.30;0.30;;;;;;;15.27;61.07;99653.28;5093433;28;20040;-75
2024/01/05 10:02:25;;;;;;;0.40;0.40;;;;;;;15.13;61.80;99656.94;5112309;28;20048;-77
2024/01/05 10:04:51;;;;;;;0.30;0.30;;;;;;;15.33;61.07;99657.56;5104873;27;20037;-76
2024/01/05 10:07:16;;;;;;;0.20;0.20;;;;;;;14.60;62.67;99659.47;5090589;28;20035;-76
2024/01/05 10:09:49;;;;;;;0.30;0.30;;;;;;;15.25;61.20;99657.38;5105951;28;20427;-78
2024/01/05 10:12:15;;;;;;;0.28;0.28;;;;;;;14.37;63.75;99662.06;5105836;28;20088;-74
2024/01/05 10:14:40;;;;;;;0.40;0.40;;;;;;;15.13;62.21;99657.75;5090030;28;20040;-76
2024/01/05 10:17:13;;;;;;;0.30;0.30;;;;;;;14.56;63.36;99652.22;5104045;28;20027;-75
2024/01/05 10:19:41;;;;;;;0.10;0.10;;;;;;;14.06;65.54;99658.66;5105870;28;20034;-77
2024/01/05 10:22:12;;;;;;;0.40;0.40;;;;;;;14.37;63.63;99653.97;5107324;28;20034;-77
2024/01/05 10:24:38;;;;;;;0.30;0.30;;;;;;;14.61;64.05;99655.69;5105161;28;20024;-78
2024/01/05 10:27:04;;;;;;;0.30;0.30;;;;;;;14.99;62.87;99656.78;5073161;28;20026;-77
2024/01/05 10:29:31;;;;;;;0.30;0.30;;;;;;;15.23;61.87;99652.25;5105606;28;20032;-78
2024/01/05 10:32:11;;;;;;;0.40;0.40;;;;;;;15.47;61.03;99647.72;5086398;28;20059;-78
2024/01/05 10:34:39;;;;;;;0.30;0.30;;;;;;;15.36;62.00;99643.47;5103176;28;20545;-80
2024/01/05 10:37:05;;;;;;;0.40;0.40;;;;;;;14.29;64.73;99641.81;5110332;27;20471;-79
2024/01/05 10:39:31;;;;;;;0.30;0.30;;;;;;;14.86;63.03;99647.41;5100661;28;20058;-79
2024/01/05 10:42:14;;;;;;;0.22;0.22;;;;;;;15.07;63.28;99648.06;5115787;27;20028;-77
2024/01/05 10:44:45;;;;;;;0.30;0.30;;;;;;;14.59;64.58;99644.34;5108190;27;20043;-78
2024/01/05 10:47:13;;;;;;;0.20;0.20;;;;;;;14.02;66.99;99646.78;5102841;27;20134;-77
2024/01/05 10:49:38;;;;;;;0.30;0.30;;;;;;;14.08;66.56;99651.91;5112715;27;20031;-81
2024/01/05 10:52:05;;;;;;;0.40;0.40;;;;;;;14.58;63.90;99642.75;5086978;28;20046;-77
2024/01/05 10:54:32;;;;;;;0.20;0.20;;;;;;;14.45;64.46;99640.66;5102284;28;20070;-77
2024/01/05 10:56:59;;;;;;;0.30;0.30;;;;;;;14.90;63.74;99644.94;5101253;28;20050;-77
2024/01/05 10:59:24;;;;;;;0.30;0.30;;;;;;;15.42;61.79;99646.97;5087996;28;20503;-79
2024/01/05 11:01:51;;;;;;;0.20;0.20;;;;;;;14.47;64.55;99646.59;5105932;27;20055;-81
2024/01/05 11:04:21;;;;;;;0.32;0.32;;;;;;;14.83;63.16;99637.16;5107088;27;20032;-78
2024/01/05 11:06:48;;;;;;;0.30;0.30;;;;;;;15.31;61.73;99646.19;5089560;28;20040;-78
2024/01/05 11:09:28;;;;;;;0.28;0.28;;;;;;;14.41;64.36;99639.59;5100880;28;20040;-77
2024/01/05 11:12:09;;;;;;;0.30;0.30;;;;;;;14.31;65.45;99634.25;5106182;27;20104;-78
2024/01/05 11:14:53;;;;;;;0.40;0.40;;;;;;;13.99;65.81;99637.34;5104894;27;20054;-77
2024/01/05 11:17:49;;;;;;;0.20;0.20;;;;;;;14.59;64.08;99644.34;5103334;28;20101;-79
2024/01/05 11:20:37;;;;;;;0.30;0.30;;;;;;;14.57;65.58;99635.72;5102318;28;20058;-79
2024/01/05 11:23:08;;;;;;;0.30;0.30;;;;;;;13.99;65.36;99637.34;5100943;28;20517;-76
2024/01/05 11:25:34;;;;;;;0.40;0.40;;;;;;;14.91;63.54;99641.16;5106268;28;20392;-77
2024/01/05 11:27:59;;;;;;;0.40;0.40;;;;;;;14.35;65.49;99640.72;5110291;28;20024;-76
2024/01/05 11:30:41;;;;;;;0.30;0.30;;;;;;;14.79;64.12;99632.59;5098349;28;20040;-74